sensor_id;sensor_type;location;lat;lon;timestamp;temperature;humidity
51815;DHT22;37874;53.158;6.766;2022-08-07T00:01:28;21.50;46.70
51815;DHT22;37874;53.158;6.766;2022-08-07T00:03:54;21.50;46.90
51815;DHT22;37874;53.158;6.766;2022-08-07T00:06:21;21.50;47.00
51815;DHT22;37874;53.158;6.766;2022-08-07T00:08:46;21.50;46.80
51815;DHT22;37874;53.158;6.766;2022-08-07T00:11:12;21.40;46.90
51815;DHT22;37874;53.158;6.766;2022-08-07T00:13:38;21.40;46.80
51815;DHT22;37874;53.158;6.766;2022-08-07T00:16:06;21.40;46.90
51815;DHT22;37874;53.158;6.766;2022-08-07T00:18:32;21.40;46.90
51815;DHT22;37874;53.158;6.766;2022-08-07T00:21:04;21.40;46.80
51815;DHT22;37874;53.158;6.766;2022-08-07T00:23:31;21.40;46.80
51815;DHT22;37874;53.158;6.766;2022-08-07T00:25:59;21.40;46.60
51815;DHT22;37874;53.158;6.766;2022-08-07T00:28:26;21.40;46.80
51815;DHT22;37874;53.158;6.766;2022-08-07T00:30:52;21.40;46.90
51815;DHT22;37874;53.158;6.766;2022-08-07T00:33:18;21.30;46.70
51815;DHT22;37874;53.158;6.766;2022-08-07T00:35:44;21.30;46.80
51815;DHT22;37874;53.158;6.766;2022-08-07T00:38:10;21.30;46.90
51815;DHT22;37874;53.158;6.766;2022-08-07T00:40:36;21.30;47.00
51815;DHT22;37874;53.158;6.766;2022-08-07T00:43:03;21.30;47.00
51815;DHT22;37874;53.158;6.766;2022-08-07T00:45:29;21.20;46.90
51815;DHT22;37874;53.158;6.766;2022-08-07T00:47:55;21.20;46.80
51815;DHT22;37874;53.158;6.766;2022-08-07T00:50:21;21.20;47.10
51815;DHT22;37874;53.158;6.766;2022-08-07T00:52:47;21.10;47.30
51815;DHT22;37874;53.158;6.766;2022-08-07T00:55:12;21.10;47.30
51815;DHT22;37874;53.158;6.766;2022-08-07T00:57:38;21.10;47.20
51815;DHT22;37874;53.158;6.766;2022-08-07T01:00:05;20.80;47.20
51815;DHT22;37874;53.158;6.766;2022-08-07T01:02:33;21.00;47.20
51815;DHT22;37874;53.158;6.766;2022-08-07T01:04:59;20.90;47.00
51815;DHT22;37874;53.158;6.766;2022-08-07T01:07:26;20.90;47.00
51815;DHT22;37874;53.158;6.766;2022-08-07T01:09:52;20.80;47.30
51815;DHT22;37874;53.158;6.766;2022-08-07T01:12:18;20.80;47.40
51815;DHT22;37874;53.158;6.766;2022-08-07T01:14:45;20.80;47.60
51815;DHT22;37874;53.158;6.766;2022-08-07T01:17:11;20.80;47.80
51815;DHT22;37874;53.158;6.766;2022-08-07T01:19:37;20.70;47.80
51815;DHT22;37874;53.158;6.766;2022-08-07T01:22:04;20.70;47.90
51815;DHT22;37874;53.158;6.766;2022-08-07T01:24:31;20.70;48.00
51815;DHT22;37874;53.158;6.766;2022-08-07T01:26:58;20.70;47.90
51815;DHT22;37874;53.158;6.766;2022-08-07T01:29:26;20.70;47.90
51815;DHT22;37874;53.158;6.766;2022-08-07T01:31:53;20.70;47.80
51815;DHT22;37874;53.158;6.766;2022-08-07T01:34:19;20.70;47.60
51815;DHT22;37874;53.158;6.766;2022-08-07T01:36:47;20.70;47.70
51815;DHT22;37874;53.158;6.766;2022-08-07T01:39:14;20.70;47.40
51815;DHT22;37874;53.158;6.766;2022-08-07T01:41:41;20.70;47.50
51815;DHT22;37874;53.158;6.766;2022-08-07T01:44:10;20.70;47.50
51815;DHT22;37874;53.158;6.766;2022-08-07T01:46:39;20.60;47.70
51815;DHT22;37874;53.158;6.766;2022-08-07T01:49:05;20.60;47.60
51815;DHT22;37874;53.158;6.766;2022-08-07T01:51:32;20.60;47.20
51815;DHT22;37874;53.158;6.766;2022-08-07T01:54:02;20.60;47.00
51815;DHT22;37874;53.158;6.766;2022-08-07T01:56:46;20.50;47.20
51815;DHT22;37874;53.158;6.766;2022-08-07T01:59:33;20.50;47.40
51815;DHT22;37874;53.158;6.766;2022-08-07T02:02:07;20.50;47.50
51815;DHT22;37874;53.158;6.766;2022-08-07T02:04:50;20.50;47.40
51815;DHT22;37874;53.158;6.766;2022-08-07T02:07:19;20.50;47.60
51815;DHT22;37874;53.158;6.766;2022-08-07T02:09:48;20.50;47.60
51815;DHT22;37874;53.158;6.766;2022-08-07T02:12:17;20.90;47.90
51815;DHT22;37874;53.158;6.766;2022-08-07T02:14:46;20.50;47.60
51815;DHT22;37874;53.158;6.766;2022-08-07T02:17:14;21.10;48.00
51815;DHT22;37874;53.158;6.766;2022-08-07T02:19:42;20.50;47.60
51815;DHT22;37874;53.158;6.766;2022-08-07T02:22:11;20.50;47.80
51815;DHT22;37874;53.158;6.766;2022-08-07T02:24:40;20.50;47.60
51815;DHT22;37874;53.158;6.766;2022-08-07T02:27:08;20.50;47.60
51815;DHT22;37874;53.158;6.766;2022-08-07T02:29:38;20.50;47.70
51815;DHT22;37874;53.158;6.766;2022-08-07T02:32:07;20.40;47.70
51815;DHT22;37874;53.158;6.766;2022-08-07T02:34:34;20.50;47.70
51815;DHT22;37874;53.158;6.766;2022-08-07T02:37:02;20.40;47.70
51815;DHT22;37874;53.158;6.766;2022-08-07T02:39:31;20.40;47.60
51815;DHT22;37874;53.158;6.766;2022-08-07T02:41:59;20.40;47.50
51815;DHT22;37874;53.158;6.766;2022-08-07T02:44:27;20.40;47.50
51815;DHT22;37874;53.158;6.766;2022-08-07T02:46:56;20.40;47.80
51815;DHT22;37874;53.158;6.766;2022-08-07T02:49:23;20.40;47.70
51815;DHT22;37874;53.158;6.766;2022-08-07T02:51:50;20.40;47.60
51815;DHT22;37874;53.158;6.766;2022-08-07T02:54:17;20.40;47.50
51815;DHT22;37874;53.158;6.766;2022-08-07T02:56:45;20.40;47.70
51815;DHT22;37874;53.158;6.766;2022-08-07T02:59:17;20.40;47.70
51815;DHT22;37874;53.158;6.766;2022-08-07T03:01:44;20.40;47.50
51815;DHT22;37874;53.158;6.766;2022-08-07T03:04:12;20.40;47.60
51815;DHT22;37874;53.158;6.766;2022-08-07T03:06:42;20.40;47.80
51815;DHT22;37874;53.158;6.766;2022-08-07T03:09:09;20.30;47.70
51815;DHT22;37874;53.158;6.766;2022-08-07T03:11:36;20.40;47.60
51815;DHT22;37874;53.158;6.766;2022-08-07T03:14:03;20.30;47.70
51815;DHT22;37874;53.158;6.766;2022-08-07T03:16:31;20.30;47.60
51815;DHT22;37874;53.158;6.766;2022-08-07T03:19:00;20.30;47.70
51815;DHT22;37874;53.158;6.766;2022-08-07T03:21:27;20.30;47.60
51815;DHT22;37874;53.158;6.766;2022-08-07T03:23:57;20.40;47.80
51815;DHT22;37874;53.158;6.766;2022-08-07T03:26:27;20.40;47.60
51815;DHT22;37874;53.158;6.766;2022-08-07T03:28:55;20.30;47.10
51815;DHT22;37874;53.158;6.766;2022-08-07T03:31:22;20.30;47.10
51815;DHT22;37874;53.158;6.766;2022-08-07T03:33:54;20.30;47.10
51815;DHT22;37874;53.158;6.766;2022-08-07T03:36:22;20.30;47.30
51815;DHT22;37874;53.158;6.766;2022-08-07T03:38:52;20.30;47.40
51815;DHT22;37874;53.158;6.766;2022-08-07T03:41:18;20.30;47.20
51815;DHT22;37874;53.158;6.766;2022-08-07T03:43:47;20.30;47.10
51815;DHT22;37874;53.158;6.766;2022-08-07T03:46:15;20.30;47.20
51815;DHT22;37874;53.158;6.766;2022-08-07T03:48:41;20.20;47.10
51815;DHT22;37874;53.158;6.766;2022-08-07T03:51:07;20.20;47.30
51815;DHT22;37874;53.158;6.766;2022-08-07T03:53:36;20.20;47.40
51815;DHT22;37874;53.158;6.766;2022-08-07T03:56:03;20.20;47.20
51815;DHT22;37874;53.158;6.766;2022-08-07T03:58:29;20.20;47.10
51815;DHT22;37874;53.158;6.766;2022-08-07T04:00:56;20.20;47.40
51815;DHT22;37874;53.158;6.766;2022-08-07T04:03:23;20.10;47.60
51815;DHT22;37874;53.158;6.766;2022-08-07T04:05:50;20.10;47.70
51815;DHT22;37874;53.158;6.766;2022-08-07T04:08:16;20.00;47.90
51815;DHT22;37874;53.158;6.766;2022-08-07T04:10:42;20.00;47.90
51815;DHT22;37874;53.158;6.766;2022-08-07T04:13:12;20.00;47.90
51815;DHT22;37874;53.158;6.766;2022-08-07T04:15:39;20.00;47.90
51815;DHT22;37874;53.158;6.766;2022-08-07T04:18:05;20.00;48.10
51815;DHT22;37874;53.158;6.766;2022-08-07T04:20:31;20.00;47.90
51815;DHT22;37874;53.158;6.766;2022-08-07T04:22:58;20.00;47.90
51815;DHT22;37874;53.158;6.766;2022-08-07T04:25:25;20.00;48.20
51815;DHT22;37874;53.158;6.766;2022-08-07T04:27:51;19.90;48.30
51815;DHT22;37874;53.158;6.766;2022-08-07T04:30:17;20.00;48.50
51815;DHT22;37874;53.158;6.766;2022-08-07T04:32:43;20.00;48.20
51815;DHT22;37874;53.158;6.766;2022-08-07T04:35:10;20.00;48.10
51815;DHT22;37874;53.158;6.766;2022-08-07T04:37:37;20.00;48.60
51815;DHT22;37874;53.158;6.766;2022-08-07T04:40:04;20.00;48.70
51815;DHT22;37874;53.158;6.766;2022-08-07T04:42:30;20.00;47.90
51815;DHT22;37874;53.158;6.766;2022-08-07T04:45:01;20.00;48.20
51815;DHT22;37874;53.158;6.766;2022-08-07T04:50:16;20.10;48.10
51815;DHT22;37874;53.158;6.766;2022-08-07T04:53:23;20.10;48.00
51815;DHT22;37874;53.158;6.766;2022-08-07T04:56:00;20.20;48.10
51815;DHT22;37874;53.158;6.766;2022-08-07T04:58:54;20.40;48.10
51815;DHT22;37874;53.158;6.766;2022-08-07T05:01:41;20.20;48.00
51815;DHT22;37874;53.158;6.766;2022-08-07T05:04:34;20.20;48.20
51815;DHT22;37874;53.158;6.766;2022-08-07T05:09:59;20.20;48.10
51815;DHT22;37874;53.158;6.766;2022-08-07T05:12:43;20.30;48.40
51815;DHT22;37874;53.158;6.766;2022-08-07T05:15:19;20.30;48.40
51815;DHT22;37874;53.158;6.766;2022-08-07T05:17:48;20.30;48.40
51815;DHT22;37874;53.158;6.766;2022-08-07T05:20:23;20.40;48.60
51815;DHT22;37874;53.158;6.766;2022-08-07T05:22:55;20.40;48.90
51815;DHT22;37874;53.158;6.766;2022-08-07T05:25:23;20.40;48.30
51815;DHT22;37874;53.158;6.766;2022-08-07T05:27:49;20.50;48.30
51815;DHT22;37874;53.158;6.766;2022-08-07T05:30:16;20.50;48.30
51815;DHT22;37874;53.158;6.766;2022-08-07T05:32:44;20.50;48.30
51815;DHT22;37874;53.158;6.766;2022-08-07T05:35:14;20.60;48.80
51815;DHT22;37874;53.158;6.766;2022-08-07T05:37:44;20.70;48.10
51815;DHT22;37874;53.158;6.766;2022-08-07T05:40:11;20.70;48.00
51815;DHT22;37874;53.158;6.766;2022-08-07T05:42:37;20.80;48.10
51815;DHT22;37874;53.158;6.766;2022-08-07T05:45:04;20.80;48.00
51815;DHT22;37874;53.158;6.766;2022-08-07T05:47:32;20.80;47.80
51815;DHT22;37874;53.158;6.766;2022-08-07T05:49:59;20.80;47.60
51815;DHT22;37874;53.158;6.766;2022-08-07T05:52:26;20.90;47.70
51815;DHT22;37874;53.158;6.766;2022-08-07T05:54:51;20.90;47.40
51815;DHT22;37874;53.158;6.766;2022-08-07T05:57:19;20.90;47.40
51815;DHT22;37874;53.158;6.766;2022-08-07T05:59:47;20.90;47.50
51815;DHT22;37874;53.158;6.766;2022-08-07T06:02:14;20.90;47.60
51815;DHT22;37874;53.158;6.766;2022-08-07T06:04:46;21.00;47.60
51815;DHT22;37874;53.158;6.766;2022-08-07T06:07:13;21.00;48.20
51815;DHT22;37874;53.158;6.766;2022-08-07T06:09:40;21.10;47.60
51815;DHT22;37874;53.158;6.766;2022-08-07T06:12:06;21.10;47.70
51815;DHT22;37874;53.158;6.766;2022-08-07T06:14:32;21.20;47.70
51815;DHT22;37874;53.158;6.766;2022-08-07T06:17:00;21.20;47.60
51815;DHT22;37874;53.158;6.766;2022-08-07T06:19:27;21.40;47.60
51815;DHT22;37874;53.158;6.766;2022-08-07T06:21:54;21.50;47.40
51815;DHT22;37874;53.158;6.766;2022-08-07T06:24:21;21.50;47.20
51815;DHT22;37874;53.158;6.766;2022-08-07T06:26:47;21.70;46.80
51815;DHT22;37874;53.158;6.766;2022-08-07T06:29:14;21.80;46.70
51815;DHT22;37874;53.158;6.766;2022-08-07T06:31:40;21.80;46.30
51815;DHT22;37874;53.158;6.766;2022-08-07T06:34:06;21.90;46.20
51815;DHT22;37874;53.158;6.766;2022-08-07T06:36:32;22.00;46.10
51815;DHT22;37874;53.158;6.766;2022-08-07T06:38:58;22.10;45.90
51815;DHT22;37874;53.158;6.766;2022-08-07T06:41:25;22.20;45.90
51815;DHT22;37874;53.158;6.766;2022-08-07T06:43:56;22.20;45.20
51815;DHT22;37874;53.158;6.766;2022-08-07T06:46:23;22.30;45.30
51815;DHT22;37874;53.158;6.766;2022-08-07T06:48:49;22.30;45.10
51815;DHT22;37874;53.158;6.766;2022-08-07T06:51:21;22.40;44.90
51815;DHT22;37874;53.158;6.766;2022-08-07T06:53:49;22.40;44.80
51815;DHT22;37874;53.158;6.766;2022-08-07T06:56:16;22.50;45.00
51815;DHT22;37874;53.158;6.766;2022-08-07T06:58:43;22.60;44.90
51815;DHT22;37874;53.158;6.766;2022-08-07T07:01:11;22.70;44.60
51815;DHT22;37874;53.158;6.766;2022-08-07T07:03:39;22.80;44.60
51815;DHT22;37874;53.158;6.766;2022-08-07T07:06:07;22.80;44.80
51815;DHT22;37874;53.158;6.766;2022-08-07T07:08:33;22.90;44.80
51815;DHT22;37874;53.158;6.766;2022-08-07T07:11:02;22.90;44.80
51815;DHT22;37874;53.158;6.766;2022-08-07T07:16:01;23.00;44.90
51815;DHT22;37874;53.158;6.766;2022-08-07T07:18:40;23.00;44.90
51815;DHT22;37874;53.158;6.766;2022-08-07T07:21:21;23.10;44.90
51815;DHT22;37874;53.158;6.766;2022-08-07T07:23:48;23.10;44.40
51815;DHT22;37874;53.158;6.766;2022-08-07T07:26:17;23.20;44.70
51815;DHT22;37874;53.158;6.766;2022-08-07T07:28:53;23.20;44.70
51815;DHT22;37874;53.158;6.766;2022-08-07T07:31:38;23.30;44.50
51815;DHT22;37874;53.158;6.766;2022-08-07T07:34:16;23.30;44.40
51815;DHT22;37874;53.158;6.766;2022-08-07T07:36:44;23.40;44.50
51815;DHT22;37874;53.158;6.766;2022-08-07T07:39:11;23.40;44.50
51815;DHT22;37874;53.158;6.766;2022-08-07T07:41:39;23.50;43.80
51815;DHT22;37874;53.158;6.766;2022-08-07T07:44:08;23.50;43.70
51815;DHT22;37874;53.158;6.766;2022-08-07T07:46:37;23.50;43.50
51815;DHT22;37874;53.158;6.766;2022-08-07T07:49:05;23.50;42.70
51815;DHT22;37874;53.158;6.766;2022-08-07T07:51:34;23.60;42.90
51815;DHT22;37874;53.158;6.766;2022-08-07T07:54:02;23.60;43.00
51815;DHT22;37874;53.158;6.766;2022-08-07T07:56:30;23.70;43.10
51815;DHT22;37874;53.158;6.766;2022-08-07T07:58:59;23.70;42.10
51815;DHT22;37874;53.158;6.766;2022-08-07T08:01:27;23.80;41.90
51815;DHT22;37874;53.158;6.766;2022-08-07T08:03:56;23.80;41.50
51815;DHT22;37874;53.158;6.766;2022-08-07T08:06:23;23.90;41.40
51815;DHT22;37874;53.158;6.766;2022-08-07T08:08:51;23.90;41.30
51815;DHT22;37874;53.158;6.766;2022-08-07T08:11:17;24.00;41.10
51815;DHT22;37874;53.158;6.766;2022-08-07T08:13:47;24.00;41.40
51815;DHT22;37874;53.158;6.766;2022-08-07T08:16:19;24.00;41.80
51815;DHT22;37874;53.158;6.766;2022-08-07T08:18:47;24.10;41.00
51815;DHT22;37874;53.158;6.766;2022-08-07T08:21:16;24.10;41.20
51815;DHT22;37874;53.158;6.766;2022-08-07T08:24:04;24.10;40.90
51815;DHT22;37874;53.158;6.766;2022-08-07T08:26:52;24.10;40.90
51815;DHT22;37874;53.158;6.766;2022-08-07T08:32:16;24.20;40.50
51815;DHT22;37874;53.158;6.766;2022-08-07T08:34:47;24.20;40.40
51815;DHT22;37874;53.158;6.766;2022-08-07T08:37:17;24.30;40.40
51815;DHT22;37874;53.158;6.766;2022-08-07T08:39:44;24.30;40.40
51815;DHT22;37874;53.158;6.766;2022-08-07T08:44:52;24.30;40.40
51815;DHT22;37874;53.158;6.766;2022-08-07T08:55:49;24.60;40.50
51815;DHT22;37874;53.158;6.766;2022-08-07T08:58:34;24.60;39.80
51815;DHT22;37874;53.158;6.766;2022-08-07T09:01:52;24.60;40.80
51815;DHT22;37874;53.158;6.766;2022-08-07T09:04:13;24.70;40.10
51815;DHT22;37874;53.158;6.766;2022-08-07T09:07:10;24.80;39.50
51815;DHT22;37874;53.158;6.766;2022-08-07T09:12:13;24.90;40.10
51815;DHT22;37874;53.158;6.766;2022-08-07T09:30:07;25.20;38.10
51815;DHT22;37874;53.158;6.766;2022-08-07T09:46:27;25.40;37.10
51815;DHT22;37874;53.158;6.766;2022-08-07T09:55:12;25.70;35.90
51815;DHT22;37874;53.158;6.766;2022-08-07T10:00:10;25.80;36.10
51815;DHT22;37874;53.158;6.766;2022-08-07T10:14:27;25.90;35.90
51815;DHT22;37874;53.158;6.766;2022-08-07T10:20:38;26.00;35.40
51815;DHT22;37874;53.158;6.766;2022-08-07T10:25:29;25.90;35.30
51815;DHT22;37874;53.158;6.766;2022-08-07T10:28:30;25.90;35.20
51815;DHT22;37874;53.158;6.766;2022-08-07T10:31:16;25.90;35.40
51815;DHT22;37874;53.158;6.766;2022-08-07T10:33:56;26.00;34.90
51815;DHT22;37874;53.158;6.766;2022-08-07T10:42:31;26.20;35.10
51815;DHT22;37874;53.158;6.766;2022-08-07T10:45:14;26.30;35.00
51815;DHT22;37874;53.158;6.766;2022-08-07T10:51:02;26.40;33.70
51815;DHT22;37874;53.158;6.766;2022-08-07T11:04:04;26.30;33.60
51815;DHT22;37874;53.158;6.766;2022-08-07T11:09:16;26.50;32.80
51815;DHT22;37874;53.158;6.766;2022-08-07T11:12:00;26.60;33.00
51815;DHT22;37874;53.158;6.766;2022-08-07T11:14:32;26.60;33.10
51815;DHT22;37874;53.158;6.766;2022-08-07T11:17:13;26.70;32.70
51815;DHT22;37874;53.158;6.766;2022-08-07T11:19:57;26.80;31.80
51815;DHT22;37874;53.158;6.766;2022-08-07T11:22:28;26.80;32.40
51815;DHT22;37874;53.158;6.766;2022-08-07T11:25:17;26.80;32.20
51815;DHT22;37874;53.158;6.766;2022-08-07T11:33:41;26.90;32.10
51815;DHT22;37874;53.158;6.766;2022-08-07T11:36:33;27.00;32.30
51815;DHT22;37874;53.158;6.766;2022-08-07T11:44:52;27.30;31.80
51815;DHT22;37874;53.158;6.766;2022-08-07T11:49:59;27.40;32.30
51815;DHT22;37874;53.158;6.766;2022-08-07T11:55:44;27.40;31.50
51815;DHT22;37874;53.158;6.766;2022-08-07T11:58:48;27.30;31.20
51815;DHT22;37874;53.158;6.766;2022-08-07T12:07:14;27.30;30.80
51815;DHT22;37874;53.158;6.766;2022-08-07T12:09:47;27.30;31.50
51815;DHT22;37874;53.158;6.766;2022-08-07T12:12:27;27.40;31.60
51815;DHT22;37874;53.158;6.766;2022-08-07T12:15:13;27.40;31.10
51815;DHT22;37874;53.158;6.766;2022-08-07T12:17:51;27.40;31.20
51815;DHT22;37874;53.158;6.766;2022-08-07T12:20:25;27.30;31.20
51815;DHT22;37874;53.158;6.766;2022-08-07T12:23:13;27.20;31.20
51815;DHT22;37874;53.158;6.766;2022-08-07T12:25:47;27.20;31.40
51815;DHT22;37874;53.158;6.766;2022-08-07T12:30:52;27.20;31.00
51815;DHT22;37874;53.158;6.766;2022-08-07T12:33:24;27.20;31.40
51815;DHT22;37874;53.158;6.766;2022-08-07T12:35:52;27.20;31.30
51815;DHT22;37874;53.158;6.766;2022-08-07T12:38:21;27.30;31.50
51815;DHT22;37874;53.158;6.766;2022-08-07T12:40:49;27.40;30.70
51815;DHT22;37874;53.158;6.766;2022-08-07T12:43:23;27.40;31.50
51815;DHT22;37874;53.158;6.766;2022-08-07T12:49:18;27.50;31.00
51815;DHT22;37874;53.158;6.766;2022-08-07T12:51:52;27.60;31.00
51815;DHT22;37874;53.158;6.766;2022-08-07T12:56:48;27.60;31.00
51815;DHT22;37874;53.158;6.766;2022-08-07T12:59:19;27.60;31.00
51815;DHT22;37874;53.158;6.766;2022-08-07T13:10:29;27.90;30.60
51815;DHT22;37874;53.158;6.766;2022-08-07T13:15:55;28.10;30.00
51815;DHT22;37874;53.158;6.766;2022-08-07T13:18:59;28.10;29.80
51815;DHT22;37874;53.158;6.766;2022-08-07T13:21:33;28.20;30.20
51815;DHT22;37874;53.158;6.766;2022-08-07T13:24:22;28.30;30.30
51815;DHT22;37874;53.158;6.766;2022-08-07T13:27:12;28.40;30.40
51815;DHT22;37874;53.158;6.766;2022-08-07T13:29:50;28.30;31.90
51815;DHT22;37874;53.158;6.766;2022-08-07T13:35:14;28.20;33.40
51815;DHT22;37874;53.158;6.766;2022-08-07T13:43:19;28.00;33.90
51815;DHT22;37874;53.158;6.766;2022-08-07T13:45:53;27.90;34.00
51815;DHT22;37874;53.158;6.766;2022-08-07T13:48:20;27.90;34.40
51815;DHT22;37874;53.158;6.766;2022-08-07T13:50:49;27.90;34.40
51815;DHT22;37874;53.158;6.766;2022-08-07T13:53:21;27.90;35.00
51815;DHT22;37874;53.158;6.766;2022-08-07T13:55:48;27.90;34.50
51815;DHT22;37874;53.158;6.766;2022-08-07T13:58:16;27.80;34.30
51815;DHT22;37874;53.158;6.766;2022-08-07T14:01:14;27.80;34.30
51815;DHT22;37874;53.158;6.766;2022-08-07T14:03:41;27.80;34.30
51815;DHT22;37874;53.158;6.766;2022-08-07T14:06:10;27.80;34.20
51815;DHT22;37874;53.158;6.766;2022-08-07T14:08:53;27.80;34.20
51815;DHT22;37874;53.158;6.766;2022-08-07T14:11:21;27.80;34.40
51815;DHT22;37874;53.158;6.766;2022-08-07T14:13:53;27.90;34.00
51815;DHT22;37874;53.158;6.766;2022-08-07T14:16:25;28.00;33.70
51815;DHT22;37874;53.158;6.766;2022-08-07T14:18:55;28.00;33.50
51815;DHT22;37874;53.158;6.766;2022-08-07T14:21:34;28.10;34.00
51815;DHT22;37874;53.158;6.766;2022-08-07T14:24:07;28.10;33.80
51815;DHT22;37874;53.158;6.766;2022-08-07T14:26:47;28.30;33.50
51815;DHT22;37874;53.158;6.766;2022-08-07T14:29:21;28.40;32.40
51815;DHT22;37874;53.158;6.766;2022-08-07T14:31:49;28.50;32.20
51815;DHT22;37874;53.158;6.766;2022-08-07T14:34:15;28.50;32.20
51815;DHT22;37874;53.158;6.766;2022-08-07T14:36:46;28.70;31.90
51815;DHT22;37874;53.158;6.766;2022-08-07T14:39:12;28.70;31.80
51815;DHT22;37874;53.158;6.766;2022-08-07T14:41:40;28.80;32.70
51815;DHT22;37874;53.158;6.766;2022-08-07T14:44:08;28.90;33.00
51815;DHT22;37874;53.158;6.766;2022-08-07T14:46:36;28.80;32.90
51815;DHT22;37874;53.158;6.766;2022-08-07T14:49:03;28.70;32.90
51815;DHT22;37874;53.158;6.766;2022-08-07T14:51:32;28.60;33.20
51815;DHT22;37874;53.158;6.766;2022-08-07T14:54:00;28.50;33.20
51815;DHT22;37874;53.158;6.766;2022-08-07T14:56:28;28.90;33.50
51815;DHT22;37874;53.158;6.766;2022-08-07T14:59:05;28.60;32.80
51815;DHT22;37874;53.158;6.766;2022-08-07T15:01:35;28.70;33.10
51815;DHT22;37874;53.158;6.766;2022-08-07T15:04:04;28.80;32.30
51815;DHT22;37874;53.158;6.766;2022-08-07T15:06:37;28.80;32.00
51815;DHT22;37874;53.158;6.766;2022-08-07T15:09:12;28.70;32.50
51815;DHT22;37874;53.158;6.766;2022-08-07T15:11:54;28.60;32.40
51815;DHT22;37874;53.158;6.766;2022-08-07T15:14:22;28.60;32.40
51815;DHT22;37874;53.158;6.766;2022-08-07T15:19:27;28.60;32.10
51815;DHT22;37874;53.158;6.766;2022-08-07T15:21:56;28.50;32.20
51815;DHT22;37874;53.158;6.766;2022-08-07T15:24:37;28.50;32.10
51815;DHT22;37874;53.158;6.766;2022-08-07T15:27:13;28.50;32.10
51815;DHT22;37874;53.158;6.766;2022-08-07T15:29:54;28.50;31.80
51815;DHT22;37874;53.158;6.766;2022-08-07T15:32:23;28.40;32.10
51815;DHT22;37874;53.158;6.766;2022-08-07T15:34:54;28.30;32.20
51815;DHT22;37874;53.158;6.766;2022-08-07T15:37:29;28.30;32.70
51815;DHT22;37874;53.158;6.766;2022-08-07T15:39:58;28.30;33.00
51815;DHT22;37874;53.158;6.766;2022-08-07T15:42:35;28.20;32.90
51815;DHT22;37874;53.158;6.766;2022-08-07T15:45:03;28.30;32.80
51815;DHT22;37874;53.158;6.766;2022-08-07T15:47:35;28.30;32.70
51815;DHT22;37874;53.158;6.766;2022-08-07T15:50:08;28.40;32.90
51815;DHT22;37874;53.158;6.766;2022-08-07T15:52:36;28.40;33.00
51815;DHT22;37874;53.158;6.766;2022-08-07T15:55:06;28.40;33.10
51815;DHT22;37874;53.158;6.766;2022-08-07T15:57:35;28.30;33.30
51815;DHT22;37874;53.158;6.766;2022-08-07T16:00:03;28.10;33.50
51815;DHT22;37874;53.158;6.766;2022-08-07T16:02:40;28.20;33.80
51815;DHT22;37874;53.158;6.766;2022-08-07T16:05:16;28.10;33.90
51815;DHT22;37874;53.158;6.766;2022-08-07T16:08:18;28.10;34.20
51815;DHT22;37874;53.158;6.766;2022-08-07T16:11:01;28.00;34.00
51815;DHT22;37874;53.158;6.766;2022-08-07T16:19:40;27.90;34.50
51815;DHT22;37874;53.158;6.766;2022-08-07T16:22:47;27.90;34.40
51815;DHT22;37874;53.158;6.766;2022-08-07T16:27:55;28.00;34.80
51815;DHT22;37874;53.158;6.766;2022-08-07T16:30:29;28.00;34.70
51815;DHT22;37874;53.158;6.766;2022-08-07T16:33:12;28.00;34.50
51815;DHT22;37874;53.158;6.766;2022-08-07T16:50:15;28.00;34.40
51815;DHT22;37874;53.158;6.766;2022-08-07T17:00:46;27.80;34.50
51815;DHT22;37874;53.158;6.766;2022-08-07T17:06:19;27.80;34.60
51815;DHT22;37874;53.158;6.766;2022-08-07T17:09:02;27.70;34.70
51815;DHT22;37874;53.158;6.766;2022-08-07T17:11:52;27.70;34.90
51815;DHT22;37874;53.158;6.766;2022-08-07T17:15:03;27.70;35.10
51815;DHT22;37874;53.158;6.766;2022-08-07T17:17:41;27.70;35.50
51815;DHT22;37874;53.158;6.766;2022-08-07T17:23:04;27.70;36.50
51815;DHT22;37874;53.158;6.766;2022-08-07T17:25:44;27.70;37.10
51815;DHT22;37874;53.158;6.766;2022-08-07T17:28:22;27.70;37.90
51815;DHT22;37874;53.158;6.766;2022-08-07T17:31:08;27.70;38.20
51815;DHT22;37874;53.158;6.766;2022-08-07T17:33:36;27.60;38.40
51815;DHT22;37874;53.158;6.766;2022-08-07T17:36:10;27.60;38.70
51815;DHT22;37874;53.158;6.766;2022-08-07T17:39:03;27.60;38.90
51815;DHT22;37874;53.158;6.766;2022-08-07T17:44:34;27.40;39.30
51815;DHT22;37874;53.158;6.766;2022-08-07T17:47:23;27.40;39.70
51815;DHT22;37874;53.158;6.766;2022-08-07T17:49:56;27.30;39.90
51815;DHT22;37874;53.158;6.766;2022-08-07T17:55:07;27.20;40.40
51815;DHT22;37874;53.158;6.766;2022-08-07T18:00:10;27.10;41.00
51815;DHT22;37874;53.158;6.766;2022-08-07T18:02:42;27.00;41.10
51815;DHT22;37874;53.158;6.766;2022-08-07T18:05:29;27.00;41.20
51815;DHT22;37874;53.158;6.766;2022-08-07T18:08:12;26.90;41.30
51815;DHT22;37874;53.158;6.766;2022-08-07T18:10:44;26.90;41.40
51815;DHT22;37874;53.158;6.766;2022-08-07T18:16:25;26.80;41.60
51815;DHT22;37874;53.158;6.766;2022-08-07T18:19:06;26.80;41.80
51815;DHT22;37874;53.158;6.766;2022-08-07T18:21:38;26.70;41.70
51815;DHT22;37874;53.158;6.766;2022-08-07T18:24:19;26.60;41.90
51815;DHT22;37874;53.158;6.766;2022-08-07T18:35:21;26.50;42.20
51815;DHT22;37874;53.158;6.766;2022-08-07T18:41:20;26.30;42.20
51815;DHT22;37874;53.158;6.766;2022-08-07T18:49:22;26.20;42.40
51815;DHT22;37874;53.158;6.766;2022-08-07T18:55:00;26.20;42.60
51815;DHT22;37874;53.158;6.766;2022-08-07T19:08:35;26.00;43.30
51815;DHT22;37874;53.158;6.766;2022-08-07T19:11:09;25.90;44.10
51815;DHT22;37874;53.158;6.766;2022-08-07T19:21:58;25.90;43.90
51815;DHT22;37874;53.158;6.766;2022-08-07T19:24:48;25.90;43.50
51815;DHT22;37874;53.158;6.766;2022-08-07T19:27:30;25.80;43.50
51815;DHT22;37874;53.158;6.766;2022-08-07T19:30:00;25.80;43.40
51815;DHT22;37874;53.158;6.766;2022-08-07T19:32:27;25.80;43.30
51815;DHT22;37874;53.158;6.766;2022-08-07T19:35:02;25.80;43.30
51815;DHT22;37874;53.158;6.766;2022-08-07T19:37:30;25.80;43.30
51815;DHT22;37874;53.158;6.766;2022-08-07T19:40:01;25.80;43.30
51815;DHT22;37874;53.158;6.766;2022-08-07T19:42:29;25.70;43.20
51815;DHT22;37874;53.158;6.766;2022-08-07T19:44:58;25.70;43.10
51815;DHT22;37874;53.158;6.766;2022-08-07T19:47:29;25.60;43.30
51815;DHT22;37874;53.158;6.766;2022-08-07T19:49:56;25.60;43.20
51815;DHT22;37874;53.158;6.766;2022-08-07T19:52:27;25.50;43.30
51815;DHT22;37874;53.158;6.766;2022-08-07T19:54:53;25.50;43.50
51815;DHT22;37874;53.158;6.766;2022-08-07T19:57:25;25.50;43.50
51815;DHT22;37874;53.158;6.766;2022-08-07T20:00:02;25.50;43.60
51815;DHT22;37874;53.158;6.766;2022-08-07T20:02:50;25.40;43.50
51815;DHT22;37874;53.158;6.766;2022-08-07T20:05:29;25.40;43.60